Hauptseite
METAR-TAF:

METAR-TAF

Flughäfen :

Fourchambault

Nevers, Frankreich

Breite: 47-00N, Länge: 003-06E, Höhe: 180 m

Beobachtung

Neuester Wetterbericht von vor 10 Stunden und 2 Minuten, um 18:00 UTC
Wind 7 kt aus Süd/Südwest
Temperatur 15°C
Luftfeuchtigkeit 82%
Luftdruck 1006 hPa
Sichtweite 10 km oder mehr

METAR: LFQG 061800Z AUTO 20007KT 9999 FEW001/// SCT034/// BKN042/// ///TCU 15/12 Q1006

Zeit: 06:02 (04:02 UTC)


TAF: fehlend

Wetterbeobachtungen und Prognosen von mehr als 4000 Flughäfen (METAR und TAF Bericht).

Die verfügbaren Stationen werden durch gelbe und rote Markierungen auf der Karte dargestellt.

Führen Sie die Maus auf sie, um den Namen der Station zu sehen.

Darauf klicken, um die Beobachtung von Wetterbeobachtungen und Prognosen zu sehen.

Um die Karte zu ändern : klicken Sie auf den grünen Tasten mit einem schwarzen Kreuz Zum Vergrößern, auf den grünen Button mit einem Gedankenstrich zu verkleinern, oder auf die grünen Pfeile für benachbarte Karten.


METAR-TAF: